Time;durP1;ratioP1;P1;durP2;ratioP2;P2;SDS_P1;SDS_P2;PMS_P1;PMS_P2;Temp;Humidity;BMP_temperature;BMP_pressure;BME280_temperature;BME280_humidity;BME280_pressure;Samples;Min_cycle;Max_cycle;Signal;HPM_P1;HPM_P2
2021/08/21 00:02:21;;;;;;;13.40;8.60;;;18.80;99.90;;;;;;4972737;28;20395;-61
2021/08/21 00:04:47;;;;;;;12.63;8.90;;;18.80;99.90;;;;;;4972041;28;20380;-61
2021/08/21 00:07:13;;;;;;;13.07;8.80;;;18.80;99.90;;;;;;4971072;28;20511;-61
2021/08/21 00:09:39;;;;;;;12.23;8.67;;;18.70;99.90;;;;;;4971709;28;20532;-61
2021/08/21 00:12:06;;;;;;;13.55;8.48;;;18.70;99.90;;;;;;4972759;28;20390;-61
2021/08/21 00:14:31;;;;;;;14.25;9.00;;;18.70;99.90;;;;;;4971437;28;20395;-61
2021/08/21 00:16:57;;;;;;;14.30;9.57;;;18.70;99.90;;;;;;4972360;28;20401;-60
2021/08/21 00:19:23;;;;;;;12.13;8.50;;;18.80;99.90;;;;;;4972426;28;20721;-61
2021/08/21 00:21:48;;;;;;;11.52;8.60;;;18.80;99.90;;;;;;4971598;28;20392;-61
2021/08/21 00:24:15;;;;;;;11.82;8.20;;;18.80;99.90;;;;;;4972306;28;20411;-61
2021/08/21 00:26:40;;;;;;;13.85;9.15;;;18.60;99.90;;;;;;4961658;28;20413;-61
2021/08/21 00:29:06;;;;;;;13.10;8.93;;;18.50;99.90;;;;;;4961489;28;20804;-61
2021/08/21 00:31:32;;;;;;;13.30;10.00;;;18.40;99.90;;;;;;4971655;28;20872;-61
2021/08/21 00:33:57;;;;;;;14.43;9.73;;;18.40;99.90;;;;;;4956469;28;20441;-61
2021/08/21 00:36:23;;;;;;;14.20;9.07;;;18.20;99.90;;;;;;4952845;28;20394;-61
2021/08/21 00:38:49;;;;;;;13.67;9.50;;;18.10;99.90;;;;;;4952045;29;20479;-61
2021/08/21 00:41:14;;;;;;;13.40;9.10;;;18.10;99.90;;;;;;4952921;28;20857;-61
2021/08/21 00:43:40;;;;;;;14.43;9.63;;;18.10;99.90;;;;;;4951751;29;20393;-61
2021/08/21 00:46:06;;;;;;;12.13;9.10;;;18.20;99.90;;;;;;4952307;29;20496;-61
2021/08/21 00:48:32;;;;;;;16.30;10.00;;;18.00;99.90;;;;;;4952051;28;20865;-60
2021/08/21 00:51:01;;;;;;;13.52;8.63;;;18.00;99.90;;;;;;4954756;28;20825;-61
2021/08/21 00:53:28;;;;;;;15.80;9.70;;;17.90;99.90;;;;;;4971864;28;20387;-61
2021/08/21 00:55:54;;;;;;;13.10;9.27;;;17.80;99.90;;;;;;4971122;28;20399;-61
2021/08/21 00:58:21;;;;;;;13.73;9.23;;;17.70;99.90;;;;;;4978936;28;20392;-61
2021/08/21 01:00:47;;;;;;;16.85;9.55;;;17.70;99.90;;;;;;4974562;28;20938;-61
2021/08/21 01:03:13;;;;;;;13.20;9.00;;;17.70;99.90;;;;;;4971764;28;20548;-61
2021/08/21 01:05:39;;;;;;;14.00;9.40;;;17.70;99.90;;;;;;4970710;28;20495;-61
2021/08/21 01:08:06;;;;;;;15.02;9.85;;;17.70;99.90;;;;;;4971256;28;20894;-61
2021/08/21 01:10:31;;;;;;;14.88;8.85;;;17.70;99.90;;;;;;4972791;28;20391;-59
2021/08/21 01:12:58;;;;;;;15.90;10.18;;;17.60;99.90;;;;;;4990849;28;20742;-62
2021/08/21 01:15:25;;;;;;;15.87;9.90;;;17.60;99.90;;;;;;4990791;28;20386;-61
2021/08/21 01:17:52;;;;;;;15.45;9.77;;;17.60;99.90;;;;;;4989884;28;20915;-61
2021/08/21 01:20:18;;;;;;;14.75;9.63;;;17.60;99.90;;;;;;4990460;28;20398;-61
2021/08/21 01:22:46;;;;;;;17.80;10.70;;;17.50;99.90;;;;;;4990182;28;20424;-61
2021/08/21 01:25:21;;;;;;;14.25;10.23;;;17.50;99.90;;;;;;4990510;28;20884;-61
2021/08/21 01:27:47;;;;;;;15.07;9.30;;;17.60;99.90;;;;;;4990177;28;20426;-61
2021/08/21 01:30:13;;;;;;;14.30;9.40;;;17.60;99.90;;;;;;4990432;28;20418;-61
2021/08/21 01:32:39;;;;;;;14.40;10.30;;;17.50;99.90;;;;;;4989899;28;20429;-61
2021/08/21 01:35:06;;;;;;;13.90;10.38;;;17.50;99.90;;;;;;4990429;28;20378;-61
2021/08/21 01:37:32;;;;;;;12.93;9.10;;;17.50;99.90;;;;;;4989875;28;20424;-60
2021/08/21 01:39:58;;;;;;;13.40;9.57;;;17.50;99.90;;;;;;4982748;28;20868;-61
2021/08/21 01:42:25;;;;;;;14.25;10.05;;;17.50;99.90;;;;;;4971102;28;20476;-61
2021/08/21 01:44:52;;;;;;;15.85;10.70;;;17.40;99.90;;;;;;4969812;28;20522;-62
2021/08/21 01:47:18;;;;;;;16.90;10.77;;;17.30;99.90;;;;;;4970549;28;20481;-61
2021/08/21 01:49:58;;;;;;;16.52;11.25;;;17.20;99.90;;;;;;4970273;28;20375;-61
2021/08/21 01:52:24;;;;;;;16.27;11.30;;;17.10;99.90;;;;;;4970979;28;20488;-61
2021/08/21 01:54:50;;;;;;;15.07;11.43;;;16.90;99.90;;;;;;4970130;28;20380;-60
2021/08/21 01:57:16;;;;;;;17.48;11.10;;;16.90;99.90;;;;;;4971087;28;20455;-61
2021/08/21 01:59:43;;;;;;;16.50;11.40;;;16.80;99.90;;;;;;4970266;28;20437;-61
2021/08/21 02:02:14;;;;;;;16.10;12.32;;;16.80;99.90;;;;;;4970841;28;20383;-61
2021/08/21 02:04:40;;;;;;;15.40;10.60;;;16.90;99.90;;;;;;4970282;28;20872;-61
2021/08/21 02:07:06;;;;;;;14.00;9.95;;;17.00;99.90;;;;;;4970522;28;20428;-61
2021/08/21 02:09:33;;;;;;;14.88;11.38;;;16.90;99.90;;;;;;4970244;28;20392;-59
2021/08/21 02:12:00;;;;;;;13.80;10.60;;;16.90;99.90;;;;;;4970718;28;20391;-61
2021/08/21 02:14:27;;;;;;;15.43;11.13;;;16.90;99.90;;;;;;4970932;28;20392;-61
2021/08/21 02:16:59;;;;;;;19.75;10.65;;;17.00;99.90;;;;;;4969670;28;20400;-61
2021/08/21 02:19:24;;;;;;;14.40;10.98;;;17.10;99.90;;;;;;4970832;28;20479;-61
2021/08/21 02:21:52;;;;;;;16.00;11.30;;;17.00;99.90;;;;;;4969926;28;20468;-61
2021/08/21 02:24:24;;;;;;;17.45;10.63;;;17.00;99.90;;;;;;4953109;28;20752;-61
2021/08/21 02:26:51;;;;;;;13.05;9.77;;;17.00;99.90;;;;;;4969726;28;20412;-60
2021/08/21 02:29:17;;;;;;;14.15;10.57;;;17.10;99.90;;;;;;4970609;28;20432;-61
2021/08/21 02:31:42;;;;;;;14.03;10.77;;;17.10;99.90;;;;;;4952583;28;20399;-61
2021/08/21 02:34:08;;;;;;;15.13;10.48;;;17.10;99.90;;;;;;4974060;28;20439;-61
2021/08/21 02:36:34;;;;;;;14.40;10.60;;;17.10;99.90;;;;;;4973358;28;20431;-60
2021/08/21 02:39:00;;;;;;;16.63;10.10;;;17.20;99.90;;;;;;4974200;28;20380;-61
2021/08/21 02:41:26;;;;;;;14.20;10.18;;;17.20;99.90;;;;;;4974354;28;20471;-60
2021/08/21 02:43:52;;;;;;;15.00;10.18;;;17.20;99.90;;;;;;4973392;28;20754;-61
2021/08/21 02:46:18;;;;;;;14.73;10.18;;;17.20;99.90;;;;;;4974131;28;20506;-61
2021/08/21 02:48:43;;;;;;;15.55;10.93;;;17.00;99.90;;;;;;4955958;28;20487;-61
2021/08/21 02:51:09;;;;;;;17.63;11.00;;;16.90;99.90;;;;;;4973800;28;20479;-61
2021/08/21 02:53:35;;;;;;;14.98;10.65;;;16.80;99.90;;;;;;4973022;28;20889;-60
2021/08/21 02:56:01;;;;;;;13.67;10.27;;;16.60;99.90;;;;;;4973946;28;20392;-61
2021/08/21 02:58:27;;;;;;;14.90;10.70;;;16.60;99.90;;;;;;4973551;28;20470;-61
2021/08/21 03:00:53;;;;;;;17.40;11.00;;;16.50;99.90;;;;;;4955793;28;20532;-61
2021/08/21 03:03:19;;;;;;;14.60;10.20;;;16.50;99.90;;;;;;4973835;28;20867;-61
2021/08/21 03:05:44;;;;;;;16.20;10.77;;;16.50;99.90;;;;;;4972820;28;20494;-61
2021/08/21 03:08:10;;;;;;;14.85;10.32;;;16.50;99.90;;;;;;4973580;28;20388;-61
2021/08/21 03:10:35;;;;;;;14.23;10.80;;;16.40;99.90;;;;;;4972975;28;20479;-61
2021/08/21 03:13:03;;;;;;;15.90;11.30;;;16.30;99.90;;;;;;4973763;28;20387;-61
2021/08/21 03:15:28;;;;;;;16.00;10.38;;;16.20;99.90;;;;;;4973559;28;20384;-61
2021/08/21 03:17:56;;;;;;;15.57;10.80;;;16.10;99.90;;;;;;4972851;28;20399;-61
2021/08/21 03:20:22;;;;;;;15.70;10.80;;;16.10;99.90;;;;;;4973732;28;20480;-61
2021/08/21 03:22:47;;;;;;;17.27;11.07;;;16.10;99.90;;;;;;4972940;28;20387;-60
2021/08/21 03:25:13;;;;;;;16.70;11.03;;;16.00;99.90;;;;;;4973552;28;20388;-60
2021/08/21 03:27:40;;;;;;;13.90;9.95;;;15.90;99.90;;;;;;4972470;28;20412;-60
2021/08/21 03:30:07;;;;;;;14.07;10.40;;;15.90;99.90;;;;;;4973292;28;20844;-61
2021/08/21 03:32:33;;;;;;;16.42;9.90;;;16.00;99.90;;;;;;4955824;28;20816;-59
2021/08/21 03:34:59;;;;;;;14.63;9.50;;;16.10;99.90;;;;;;4972954;28;20416;-61
2021/08/21 03:37:25;;;;;;;15.52;10.25;;;16.00;99.90;;;;;;4973105;28;20480;-61
2021/08/21 03:39:51;;;;;;;17.73;10.15;;;16.00;99.90;;;;;;4972739;28;20879;-61
2021/08/21 03:42:17;;;;;;;12.43;9.37;;;15.90;99.90;;;;;;4972826;28;20403;-61
2021/08/21 03:44:43;;;;;;;14.13;9.55;;;15.90;99.90;;;;;;4972462;28;20954;-61
2021/08/21 03:47:10;;;;;;;13.80;9.85;;;16.00;99.90;;;;;;4972945;28;20432;-61
2021/08/21 03:49:38;;;;;;;12.85;9.90;;;16.00;99.90;;;;;;4972092;28;20438;-60
2021/08/21 03:52:04;;;;;;;13.73;9.70;;;16.00;99.90;;;;;;4972622;28;20416;-61
2021/08/21 03:54:30;;;;;;;16.40;9.90;;;16.00;99.90;;;;;;4972444;28;20400;-61
2021/08/21 03:56:56;;;;;;;14.27;9.93;;;15.90;99.90;;;;;;4972160;28;20392;-61
2021/08/21 03:59:21;;;;;;;13.70;9.10;;;15.80;99.90;;;;;;4972793;28;20388;-61
2021/08/21 04:01:47;;;;;;;15.73;9.63;;;15.70;99.90;;;;;;4971866;28;20389;-61
2021/08/21 04:04:13;;;;;;;14.35;9.90;;;15.70;99.90;;;;;;4972878;28;20388;-60
2021/08/21 04:06:40;;;;;;;14.70;9.60;;;15.70;99.90;;;;;;4981931;28;20447;-60
2021/08/21 04:09:05;;;;;;;12.88;9.30;;;15.70;99.90;;;;;;4974750;28;20785;-60
2021/08/21 04:11:31;;;;;;;14.40;9.53;;;15.70;99.90;;;;;;4991903;28;20433;-59
2021/08/21 04:13:57;;;;;;;14.80;10.07;;;15.70;99.90;;;;;;4991234;28;20390;-60
2021/08/21 04:16:23;;;;;;;14.02;10.38;;;15.70;99.90;;;;;;4991765;28;20494;-60
2021/08/21 04:18:49;;;;;;;15.90;10.87;;;15.60;99.90;;;;;;4991286;28;20394;-60
2021/08/21 04:21:14;;;;;;;14.73;10.30;;;15.50;99.90;;;;;;4991850;28;20398;-60
2021/08/21 04:23:40;;;;;;;16.60;10.90;;;15.50;99.90;;;;;;4990946;28;20394;-60
2021/08/21 04:26:06;;;;;;;14.85;10.70;;;15.50;99.90;;;;;;4991535;28;20410;-60
2021/08/21 04:28:31;;;;;;;13.10;10.10;;;15.50;99.90;;;;;;4991783;28;20482;-60
2021/08/21 04:30:58;;;;;;;14.30;9.88;;;15.50;99.90;;;;;;4991069;28;20949;-61
2021/08/21 04:33:24;;;;;;;13.93;10.10;;;15.50;99.90;;;;;;4991512;28;20413;-60
2021/08/21 04:35:50;;;;;;;14.95;10.40;;;15.50;99.90;;;;;;4991219;28;20430;-61
2021/08/21 04:38:17;;;;;;;16.80;10.07;;;15.60;99.90;;;;;;4992111;28;20413;-60
2021/08/21 04:40:44;;;;;;;14.23;10.10;;;15.60;99.90;;;;;;4990669;28;20386;-60
2021/08/21 04:43:11;;;;;;;13.73;9.48;;;15.70;99.90;;;;;;4991161;28;20389;-60
2021/08/21 04:45:37;;;;;;;13.90;9.80;;;15.80;99.90;;;;;;4990771;28;20426;-59
2021/08/21 04:48:03;;;;;;;13.68;9.60;;;15.90;99.90;;;;;;4991013;28;20430;-60
2021/08/21 04:50:28;;;;;;;15.52;10.00;;;16.00;99.90;;;;;;4972639;28;20434;-60
2021/08/21 04:52:54;;;;;;;12.73;9.47;;;16.10;99.90;;;;;;4990671;28;20402;-60
2021/08/21 04:55:20;;;;;;;14.95;9.43;;;16.20;99.90;;;;;;4990664;28;20794;-62
2021/08/21 04:57:45;;;;;;;13.10;9.17;;;16.30;99.90;;;;;;4990112;28;20390;-61
2021/08/21 05:00:12;;;;;;;13.93;9.53;;;16.40;99.90;;;;;;4991415;28;20405;-61
2021/08/21 05:02:37;;;;;;;13.70;9.45;;;16.50;99.90;;;;;;4990325;28;20445;-61
2021/08/21 05:05:03;;;;;;;12.47;8.40;;;16.70;99.90;;;;;;4974034;28;20743;-61
2021/08/21 05:07:29;;;;;;;12.85;8.88;;;16.80;99.90;;;;;;4991245;28;20433;-60
2021/08/21 05:09:54;;;;;;;13.10;8.30;;;16.90;99.90;;;;;;4990046;28;20391;-61
2021/08/21 05:12:20;;;;;;;13.52;8.40;;;17.10;99.90;;;;;;4989349;28;20889;-61
2021/08/21 05:14:46;;;;;;;13.63;9.68;;;17.30;99.90;;;;;;4976383;28;20399;-61
2021/08/21 05:17:12;;;;;;;12.67;9.13;;;17.60;99.90;;;;;;4980705;28;20406;-60
2021/08/21 05:19:41;;;;;;;15.43;9.88;;;17.60;99.90;;;;;;4981310;28;20943;-59
2021/08/21 05:22:22;;;;;;;13.68;9.30;;;17.80;99.90;;;;;;4982067;28;20510;-61
2021/08/21 05:24:49;;;;;;;14.23;10.02;;;18.00;99.90;;;;;;4971439;28;20392;-61
2021/08/21 05:27:16;;;;;;;17.00;9.25;;;18.20;99.90;;;;;;4972726;28;20899;-61
2021/08/21 05:29:42;;;;;;;13.80;8.98;;;18.40;99.90;;;;;;4970619;28;20427;-60
2021/08/21 05:32:08;;;;;;;14.30;9.90;;;18.50;99.90;;;;;;4958641;28;20864;-61
2021/08/21 05:34:33;;;;;;;14.65;9.98;;;18.70;99.90;;;;;;4979614;28;20407;-60
2021/08/21 05:36:59;;;;;;;15.70;9.70;;;18.70;99.90;;;;;;4977841;28;20400;-61
2021/08/21 05:39:26;;;;;;;13.43;10.00;;;18.60;99.90;;;;;;4984440;28;20543;-61
2021/08/21 05:41:51;;;;;;;14.38;10.00;;;18.70;99.90;;;;;;4990103;28;20398;-60
2021/08/21 05:44:17;;;;;;;14.05;10.20;;;18.80;99.90;;;;;;4985049;28;20400;-61
2021/08/21 05:46:43;;;;;;;13.70;9.70;;;19.10;99.90;;;;;;4977301;28;20424;-61
2021/08/21 05:49:08;;;;;;;17.10;9.83;;;19.30;99.90;;;;;;4976060;28;20418;-59
2021/08/21 05:51:34;;;;;;;13.10;8.80;;;19.60;99.90;;;;;;4972147;28;20412;-59
2021/08/21 05:54:00;;;;;;;14.75;9.15;;;19.80;99.90;;;;;;4953769;28;20432;-60
2021/08/21 05:56:25;;;;;;;14.47;10.00;;;20.10;99.90;;;;;;4990073;28;20387;-61
2021/08/21 05:58:52;;;;;;;14.60;9.80;;;20.30;99.90;;;;;;4985716;28;20424;-61
2021/08/21 06:01:18;;;;;;;13.95;9.90;;;20.30;99.90;;;;;;4982436;28;20412;-61
2021/08/21 06:03:43;;;;;;;14.40;9.93;;;20.30;99.90;;;;;;4978363;28;20901;-60
2021/08/21 06:06:13;;;;;;;13.60;9.43;;;20.30;99.90;;;;;;4981942;28;20447;-60
2021/08/21 06:08:40;;;;;;;14.80;9.90;;;20.50;99.90;;;;;;4969609;28;20392;-60
2021/08/21 06:11:06;;;;;;;14.63;10.75;;;20.70;99.90;;;;;;4983073;28;20382;-63
2021/08/21 06:13:31;;;;;;;16.20;9.18;;;21.10;99.90;;;;;;4989856;28;20525;-60
2021/08/21 06:15:57;;;;;;;15.52;9.90;;;21.20;99.90;;;;;;4989002;28;20418;-62
2021/08/21 06:18:23;;;;;;;14.63;9.77;;;21.70;99.90;;;;;;4986724;28;20918;-62
2021/08/21 06:20:48;;;;;;;14.13;9.03;;;22.30;99.90;;;;;;4952458;28;20416;-61
2021/08/21 06:23:14;;;;;;;11.67;8.30;;;22.70;99.90;;;;;;4952949;28;20439;-61
2021/08/21 06:25:40;;;;;;;14.38;8.90;;;22.70;99.90;;;;;;4969620;28;20408;-61
2021/08/21 06:28:06;;;;;;;14.57;10.03;;;22.60;99.90;;;;;;4975411;28;20438;-61
2021/08/21 06:30:31;;;;;;;14.67;10.07;;;22.50;99.90;;;;;;4989811;28;20440;-62
2021/08/21 06:32:57;;;;;;;13.40;9.73;;;22.30;99.90;;;;;;4988763;28;20832;-61
2021/08/21 06:35:23;;;;;;;14.70;9.03;;;22.70;99.90;;;;;;4987412;28;20747;-62
2021/08/21 06:37:48;;;;;;;13.57;9.13;;;23.30;99.90;;;;;;4977788;28;20386;-62
2021/08/21 06:40:14;;;;;;;13.20;9.30;;;24.00;99.90;;;;;;4978826;28;20401;-62
2021/08/21 06:42:40;;;;;;;14.02;8.88;;;24.90;99.90;;;;;;4978964;28;20487;-63
2021/08/21 06:45:07;;;;;;;12.30;9.20;;;25.80;99.90;;;;;;4981125;28;20750;-62
2021/08/21 06:47:34;;;;;;;12.10;8.52;;;26.40;99.90;;;;;;4978461;28;20442;-62
2021/08/21 06:49:59;;;;;;;12.57;8.20;;;25.90;99.90;;;;;;4979340;28;20760;-62
2021/08/21 06:52:25;;;;;;;12.60;9.00;;;25.20;99.90;;;;;;4978508;28;20909;-63
2021/08/21 06:54:50;;;;;;;13.37;8.20;;;24.60;99.90;;;;;;4978943;28;20382;-63
2021/08/21 06:57:16;;;;;;;13.70;8.40;;;24.30;99.90;;;;;;4966925;28;20892;-62
2021/08/21 06:59:42;;;;;;;11.97;8.17;;;24.00;99.90;;;;;;4977335;28;20431;-62
2021/08/21 07:02:07;;;;;;;14.10;8.30;;;23.80;99.90;;;;;;4969298;28;20924;-63
2021/08/21 07:04:33;;;;;;;12.30;7.87;;;24.40;99.90;;;;;;4980082;28;20392;-62
2021/08/21 07:06:58;;;;;;;10.90;7.63;;;25.40;99.90;;;;;;4982979;28;21117;-60
2021/08/21 07:09:24;;;;;;;11.60;8.20;;;26.60;99.90;;;;;;4978501;28;20397;-61
2021/08/21 07:11:50;;;;;;;12.67;8.10;;;27.40;99.90;;;;;;4980062;28;20395;-61
2021/08/21 07:14:16;;;;;;;10.87;7.17;;;28.20;99.90;;;;;;4978639;28;20439;-60
2021/08/21 07:16:41;;;;;;;10.60;6.90;;;29.00;99.90;;;;;;4979205;28;20404;-62
2021/08/21 07:19:07;;;;;;;10.50;7.30;;;29.20;99.30;;;;;;4979495;28;20946;-62
2021/08/21 07:21:33;;;;;;;12.97;7.77;;;29.00;97.80;;;;;;4980540;28;20386;-65
2021/08/21 07:23:59;;;;;;;13.20;7.90;;;28.80;97.30;;;;;;4980654;28;20402;-59
2021/08/21 07:26:25;;;;;;;9.85;8.05;;;29.60;95.50;;;;;;4964217;28;20420;-62
2021/08/21 07:28:50;;;;;;;9.65;8.30;;;30.10;94.20;;;;;;4978779;28;20750;-65
2021/08/21 07:31:17;;;;;;;11.10;9.20;;;30.50;92.70;;;;;;4980314;28;20885;-65
2021/08/21 07:33:43;;;;;;;9.60;6.80;;;31.10;91.10;;;;;;4979714;28;20463;-65
2021/08/21 07:36:09;;;;;;;10.65;6.80;;;31.30;88.20;;;;;;4984048;28;20786;-68
2021/08/21 07:38:35;;;;;;;12.85;7.03;;;31.00;90.00;;;;;;4979185;28;20401;-66
2021/08/21 07:41:01;;;;;;;10.00;6.40;;;31.50;87.20;;;;;;4979270;28;20499;-67
2021/08/21 07:43:27;;;;;;;10.50;6.45;;;31.80;85.30;;;;;;4977151;28;20987;-66
2021/08/21 07:45:53;;;;;;;10.43;6.93;;;31.50;85.40;;;;;;4978092;28;20893;-67
2021/08/21 07:48:18;;;;;;;9.17;6.70;;;31.40;82.70;;;;;;4982243;28;20414;-66
2021/08/21 07:50:44;;;;;;;10.50;6.90;;;31.40;83.20;;;;;;4983708;28;20960;-66
2021/08/21 07:53:10;;;;;;;11.90;7.30;;;31.70;83.50;;;;;;4985004;28;20387;-67
2021/08/21 07:55:36;;;;;;;10.48;6.80;;;32.00;82.40;;;;;;4984318;28;20384;-67
2021/08/21 07:58:04;;;;;;;11.88;7.63;;;32.90;79.10;;;;;;4982707;28;20452;-68
2021/08/21 08:00:30;;;;;;;13.50;12.10;;;33.30;75.40;;;;;;4980101;28;20443;-66
2021/08/21 08:02:56;;;;;;;12.15;10.95;;;34.10;73.80;;;;;;4978102;28;20382;-67
2021/08/21 08:05:21;;;;;;;12.90;11.30;;;34.40;71.00;;;;;;4979736;28;20417;-68
2021/08/21 08:07:47;;;;;;;11.63;10.37;;;34.40;69.20;;;;;;4977792;28;20404;-67
2021/08/21 08:10:13;;;;;;;9.98;6.20;;;34.50;66.50;;;;;;4978392;28;20752;-68
2021/08/21 08:12:38;;;;;;;11.32;9.50;;;34.30;68.00;;;;;;4979938;28;20433;-61
2021/08/21 08:15:04;;;;;;;13.30;12.10;;;34.70;64.30;;;;;;4980087;28;20424;-68
2021/08/21 08:17:30;;;;;;;10.57;9.48;;;34.20;64.80;;;;;;4981963;28;20456;-68
2021/08/21 08:19:56;;;;;;;13.30;8.20;;;34.70;65.10;;;;;;4980107;28;20396;-67
2021/08/21 08:22:21;;;;;;;11.63;8.80;;;34.90;62.00;;;;;;4968042;28;20408;-68
2021/08/21 08:24:47;;;;;;;9.55;7.00;;;34.20;62.70;;;;;;4979568;28;20479;-67
2021/08/21 08:27:15;;;;;;;11.32;9.07;;;34.60;62.10;;;;;;4980682;28;20410;-67
2021/08/21 08:29:41;;;;;;;10.35;6.75;;;35.00;61.90;;;;;;4977272;28;20395;-61
2021/08/21 08:32:06;;;;;;;10.33;7.93;;;34.70;61.30;;;;;;4980390;28;20402;-67
2021/08/21 08:34:32;;;;;;;14.47;12.97;;;34.10;61.70;;;;;;4976360;28;20446;-68
2021/08/21 08:36:58;;;;;;;11.20;8.75;;;34.20;61.10;;;;;;4977330;28;20391;-68
2021/08/21 08:39:23;;;;;;;13.90;11.60;;;35.10;59.00;;;;;;4977293;28;20747;-69
2021/08/21 08:41:50;;;;;;;13.43;12.03;;;35.00;59.50;;;;;;4974283;28;20388;-69
2021/08/21 08:44:18;;;;;;;10.27;8.13;;;34.90;58.80;;;;;;4981356;28;20474;-66
2021/08/21 08:46:44;;;;;;;10.20;7.45;;;34.40;60.80;;;;;;4977886;28;20448;-61
2021/08/21 08:49:11;;;;;;;10.57;7.20;;;34.60;60.30;;;;;;4978425;28;20405;-68
2021/08/21 08:51:37;;;;;;;8.95;6.90;;;34.80;59.60;;;;;;4980646;28;20449;-68
2021/08/21 08:54:03;;;;;;;8.07;6.37;;;35.30;58.20;;;;;;4978544;28;20394;-69
2021/08/21 08:56:29;;;;;;;10.30;7.00;;;34.90;58.60;;;;;;4974183;28;20404;-68
2021/08/21 08:58:54;;;;;;;9.90;7.03;;;35.60;57.50;;;;;;4979525;28;20400;-68
2021/08/21 09:01:20;;;;;;;10.70;8.77;;;36.10;57.90;;;;;;4979182;28;20400;-67
2021/08/21 09:03:47;;;;;;;10.82;8.00;;;36.50;57.10;;;;;;4979935;28;20430;-68
2021/08/21 09:06:13;;;;;;;9.55;8.55;;;36.40;55.40;;;;;;4980331;28;20438;-68
2021/08/21 09:08:40;;;;;;;13.52;12.23;;;36.20;55.50;;;;;;4979117;28;20393;-65
2021/08/21 09:11:23;;;;;;;13.02;11.73;;;36.10;55.50;;;;;;4977306;28;20426;-68
2021/08/21 09:13:49;;;;;;;11.00;9.90;;;35.90;56.70;;;;;;4978053;28;20391;-69
2021/08/21 09:16:25;;;;;;;9.40;5.65;;;36.50;55.30;;;;;;4979909;28;20494;-68
2021/08/21 09:19:05;;;;;;;8.80;5.90;;;37.10;54.10;;;;;;4979314;28;20403;-67
2021/08/21 09:21:31;;;;;;;9.50;6.85;;;37.00;54.30;;;;;;4980840;28;20397;-66
2021/08/21 09:23:57;;;;;;;10.63;7.03;;;37.60;52.80;;;;;;4980021;28;20404;-69
2021/08/21 09:26:30;;;;;;;10.80;8.07;;;38.40;51.40;;;;;;4978945;28;20419;-68
2021/08/21 09:28:57;;;;;;;8.95;6.50;;;37.30;52.90;;;;;;4975924;28;20400;-69
2021/08/21 09:31:24;;;;;;;9.20;5.70;;;36.90;53.50;;;;;;4977290;28;20775;-68
2021/08/21 09:33:59;;;;;;;12.55;7.00;;;36.30;54.40;;;;;;4977017;28;20891;-66
2021/08/21 09:36:40;;;;;;;10.32;6.72;;;36.50;54.70;;;;;;4972141;28;20398;-69
2021/08/21 09:39:08;;;;;;;9.98;7.22;;;37.40;53.70;;;;;;4969851;28;20420;-65
2021/08/21 09:41:54;;;;;;;10.75;7.70;;;38.10;52.30;;;;;;4987292;28;20410;-66
2021/08/21 09:44:31;;;;;;;9.48;6.63;;;37.30;52.00;;;;;;4978402;28;20513;-66
2021/08/21 09:47:22;;;;;;;10.27;6.90;;;37.60;52.60;;;;;;4978107;28;20448;-67
2021/08/21 09:49:47;;;;;;;12.23;6.50;;;37.70;51.90;;;;;;4982180;28;20411;-68
2021/08/21 09:52:15;;;;;;;10.03;6.63;;;38.50;50.90;;;;;;4988432;28;20468;-67
2021/08/21 09:55:02;;;;;;;10.15;7.20;;;39.20;50.40;;;;;;4972843;28;20388;-68
2021/08/21 09:57:28;;;;;;;11.10;8.23;;;38.40;50.70;;;;;;4976887;28;20480;-64
2021/08/21 09:59:57;;;;;;;11.02;7.43;;;38.00;51.00;;;;;;4969038;28;20421;-65
2021/08/21 10:02:24;;;;;;;14.60;13.10;;;37.50;51.40;;;;;;4962541;28;20425;-66
2021/08/21 10:04:50;;;;;;;11.27;8.48;;;36.60;52.80;;;;;;4982029;28;20462;-67
2021/08/21 10:07:19;;;;;;;11.13;6.80;;;36.30;53.10;;;;;;4974629;28;20511;-67
2021/08/21 10:09:46;;;;;;;10.27;6.53;;;36.00;53.40;;;;;;4972252;28;20550;-62
2021/08/21 10:12:13;;;;;;;9.88;6.40;;;36.40;53.90;;;;;;4984856;28;20435;-66
2021/08/21 10:14:41;;;;;;;10.93;6.90;;;36.80;52.80;;;;;;4982339;28;20406;-67
2021/08/21 10:17:08;;;;;;;9.48;6.05;;;37.10;52.20;;;;;;4981132;28;20845;-66
2021/08/21 10:19:36;;;;;;;9.00;6.60;;;37.40;51.90;;;;;;4979752;28;20414;-63
2021/08/21 10:22:02;;;;;;;12.02;6.00;;;37.20;53.20;;;;;;4972257;28;20406;-67
2021/08/21 10:24:28;;;;;;;13.05;6.45;;;37.40;51.30;;;;;;4974613;28;20500;-66
2021/08/21 10:27:15;;;;;;;10.47;5.97;;;37.70;52.10;;;;;;4976553;28;20418;-66
2021/08/21 10:29:40;;;;;;;11.18;6.07;;;37.90;51.90;;;;;;4971902;28;21817;-67
2021/08/21 10:32:31;;;;;;;9.07;6.37;;;37.90;51.70;;;;;;4975653;28;20488;-65
2021/08/21 10:34:57;;;;;;;9.55;5.65;;;37.50;50.80;;;;;;4980028;28;20419;-69
2021/08/21 10:37:43;;;;;;;8.85;6.00;;;37.70;50.70;;;;;;4982387;28;20386;-68
2021/08/21 10:40:27;;;;;;;9.07;6.20;;;37.30;51.30;;;;;;4976755;28;20414;-67
2021/08/21 10:43:01;;;;;;;8.38;5.68;;;36.40;52.00;;;;;;4980689;28;20458;-68
2021/08/21 10:45:42;;;;;;;10.88;6.22;;;35.40;54.10;;;;;;4984445;28;20437;-68
2021/08/21 10:48:12;;;;;;;11.40;10.20;;;34.20;56.10;;;;;;4968472;28;21054;-67
2021/08/21 10:50:45;;;;;;;12.40;6.80;;;33.70;57.20;;;;;;4981262;28;20866;-65
2021/08/21 10:53:21;;;;;;;12.80;10.90;;;33.00;58.60;;;;;;4984476;28;20921;-67
2021/08/21 10:55:47;;;;;;;17.35;15.88;;;32.80;59.70;;;;;;4986775;28;20422;-61
2021/08/21 10:58:21;;;;;;;11.15;9.95;;;33.00;58.60;;;;;;4982845;28;20410;-67
2021/08/21 11:01:09;;;;;;;13.20;10.77;;;32.60;58.60;;;;;;4984935;28;20418;-65
2021/08/21 11:03:34;;;;;;;11.60;10.40;;;32.40;60.50;;;;;;4989151;28;20505;-66
2021/08/21 11:06:13;;;;;;;11.30;10.10;;;32.40;60.80;;;;;;4979029;28;20515;-67
2021/08/21 11:08:38;;;;;;;12.07;9.70;;;32.20;61.00;;;;;;4982928;28;20479;-67
2021/08/21 11:14:08;;;;;;;11.60;10.40;;;32.50;62.10;;;;;;4975659;28;20482;-66
2021/08/21 11:17:01;;;;;;;10.80;9.40;;;32.50;60.30;;;;;;4981030;28;20931;-67
2021/08/21 11:19:32;;;;;;;14.05;11.57;;;32.40;61.20;;;;;;4981249;28;20436;-66
2021/08/21 11:22:10;;;;;;;13.60;12.20;;;32.30;62.10;;;;;;4983498;28;20420;-67
2021/08/21 11:24:37;;;;;;;11.80;10.40;;;32.30;61.50;;;;;;4979942;28;20392;-64
2021/08/21 11:27:21;;;;;;;13.15;11.80;;;32.30;63.50;;;;;;4977483;28;21116;-67
2021/08/21 11:30:06;;;;;;;14.73;12.00;;;32.30;61.10;;;;;;4974736;28;20431;-65
2021/08/21 11:33:03;;;;;;;13.35;11.10;;;32.20;62.40;;;;;;4986840;28;20412;-65
2021/08/21 11:35:35;;;;;;;13.05;11.65;;;32.10;62.50;;;;;;4973418;28;20465;-67
2021/08/21 11:38:00;;;;;;;14.07;11.02;;;31.90;62.40;;;;;;4984547;28;20476;-67
2021/08/21 11:40:35;;;;;;;13.20;11.68;;;32.10;65.10;;;;;;4984346;28;21112;-68
2021/08/21 11:43:02;;;;;;;12.70;10.57;;;31.80;63.30;;;;;;4978136;28;20425;-66
2021/08/21 11:45:28;;;;;;;11.35;10.13;;;31.90;64.70;;;;;;4979297;28;20469;-65
2021/08/21 11:47:55;;;;;;;11.70;10.50;;;32.10;65.40;;;;;;4980672;28;20478;-67
2021/08/21 11:50:32;;;;;;;13.73;11.60;;;32.20;62.90;;;;;;4976372;28;20415;-65
2021/08/21 11:53:10;;;;;;;13.50;10.60;;;32.10;63.70;;;;;;4978311;28;20431;-67
2021/08/21 11:55:37;;;;;;;11.52;10.32;;;31.70;66.00;;;;;;4976527;28;20445;-65
2021/08/21 11:58:05;;;;;;;11.65;9.95;;;31.70;66.90;;;;;;4980430;28;20410;-66
2021/08/21 12:00:33;;;;;;;11.52;10.10;;;31.80;64.60;;;;;;4978871;28;20861;-66
2021/08/21 12:03:03;;;;;;;11.82;9.90;;;31.90;63.50;;;;;;4977438;28;20412;-67
2021/08/21 12:05:29;;;;;;;12.20;11.00;;;32.10;63.20;;;;;;4980096;28;20434;-66
2021/08/21 12:07:55;;;;;;;11.13;10.03;;;31.90;62.80;;;;;;4976693;28;20467;-64
2021/08/21 12:10:21;;;;;;;11.00;9.00;;;32.10;62.90;;;;;;4977307;28;20405;-66
2021/08/21 12:12:55;;;;;;;11.97;9.57;;;32.00;63.90;;;;;;4978615;28;20421;-62
2021/08/21 12:15:28;;;;;;;12.20;10.90;;;31.90;67.00;;;;;;4978093;28;20780;-66
2021/08/21 12:17:55;;;;;;;11.90;10.70;;;32.10;64.50;;;;;;4983051;28;20480;-66
2021/08/21 12:20:22;;;;;;;12.23;10.65;;;31.60;64.10;;;;;;4979555;28;20397;-66
2021/08/21 12:22:48;;;;;;;12.25;11.15;;;31.10;66.20;;;;;;4976987;28;20477;-61
2021/08/21 12:25:14;;;;;;;11.90;10.10;;;31.10;64.90;;;;;;4982344;28;20390;-68
2021/08/21 12:27:41;;;;;;;12.18;9.70;;;31.40;64.10;;;;;;4977074;28;20473;-66
2021/08/21 12:30:12;;;;;;;10.70;9.60;;;31.30;65.50;;;;;;4975678;28;21531;-65
2021/08/21 12:32:39;;;;;;;11.55;10.35;;;31.50;65.40;;;;;;4978903;28;20412;-67
2021/08/21 12:35:19;;;;;;;11.73;10.55;;;31.60;65.20;;;;;;4977248;28;20507;-66
2021/08/21 12:38:01;;;;;;;12.35;10.50;;;31.50;65.50;;;;;;4966356;28;20469;-61
2021/08/21 12:40:27;;;;;;;12.30;10.00;;;31.70;63.30;;;;;;4980634;28;20396;-67